sensor_id;sensor_type;location;lat;lon;timestamp;pressure;altitude;pressure_sealevel;temperature;humidity
25560;BME280;13450;49.374;8.584;2023-01-30T00:00:21;101333.22;;;-2.47;100.00
25560;BME280;13450;49.374;8.584;2023-01-30T00:02:46;101342.75;;;-2.46;100.00
25560;BME280;13450;49.374;8.584;2023-01-30T00:05:12;101339.31;;;-2.46;100.00
25560;BME280;13450;49.374;8.584;2023-01-30T00:07:37;101329.44;;;-2.41;100.00
25560;BME280;13450;49.374;8.584;2023-01-30T00:10:03;101343.94;;;-2.34;100.00
25560;BME280;13450;49.374;8.584;2023-01-30T00:12:29;101344.22;;;-2.22;100.00
25560;BME280;13450;49.374;8.584;2023-01-30T00:14:54;101330.63;;;-2.13;100.00
25560;BME280;13450;49.374;8.584;2023-01-30T00:17:19;101331.06;;;-2.05;100.00
25560;BME280;13450;49.374;8.584;2023-01-30T00:19:45;101342.94;;;-1.98;100.00
25560;BME280;13450;49.374;8.584;2023-01-30T00:22:10;101336.44;;;-1.90;100.00
25560;BME280;13450;49.374;8.584;2023-01-30T00:24:35;101336.94;;;-1.84;100.00
25560;BME280;13450;49.374;8.584;2023-01-30T00:27:00;101324.34;;;-1.77;100.00
25560;BME280;13450;49.374;8.584;2023-01-30T00:29:26;101317.16;;;-1.73;100.00
25560;BME280;13450;49.374;8.584;2023-01-30T00:31:51;101310.63;;;-1.66;100.00
25560;BME280;13450;49.374;8.584;2023-01-30T00:34:19;101305.91;;;-1.59;100.00
25560;BME280;13450;49.374;8.584;2023-01-30T00:36:44;101309.97;;;-1.53;100.00
25560;BME280;13450;49.374;8.584;2023-01-30T00:39:09;101295.81;;;-1.51;100.00
25560;BME280;13450;49.374;8.584;2023-01-30T00:41:34;101291.16;;;-1.46;100.00
25560;BME280;13450;49.374;8.584;2023-01-30T00:44:18;101292.69;;;-1.41;100.00
25560;BME280;13450;49.374;8.584;2023-01-30T00:47:03;101298.50;;;-1.36;100.00
25560;BME280;13450;49.374;8.584;2023-01-30T00:49:33;101307.09;;;-1.33;100.00
25560;BME280;13450;49.374;8.584;2023-01-30T00:51:59;101307.84;;;-1.30;100.00
25560;BME280;13450;49.374;8.584;2023-01-30T00:54:30;101301.41;;;-1.25;100.00
25560;BME280;13450;49.374;8.584;2023-01-30T00:56:55;101296.88;;;-1.23;100.00
25560;BME280;13450;49.374;8.584;2023-01-30T00:59:22;101288.94;;;-1.21;100.00
25560;BME280;13450;49.374;8.584;2023-01-30T01:01:47;101282.56;;;-1.17;100.00
25560;BME280;13450;49.374;8.584;2023-01-30T01:04:13;101287.66;;;-1.14;100.00
25560;BME280;13450;49.374;8.584;2023-01-30T01:06:38;101276.28;;;-1.14;100.00
25560;BME280;13450;49.374;8.584;2023-01-30T01:09:04;101271.81;;;-1.12;100.00
25560;BME280;13450;49.374;8.584;2023-01-30T01:11:30;101269.91;;;-1.10;100.00
25560;BME280;13450;49.374;8.584;2023-01-30T01:13:59;101264.66;;;-1.10;100.00
25560;BME280;13450;49.374;8.584;2023-01-30T01:16:28;101264.50;;;-1.07;100.00
25560;BME280;13450;49.374;8.584;2023-01-30T01:18:55;101259.25;;;-1.07;100.00
25560;BME280;13450;49.374;8.584;2023-01-30T01:21:21;101247.88;;;-1.08;100.00
25560;BME280;13450;49.374;8.584;2023-01-30T01:23:55;101225.34;;;-1.12;100.00
25560;BME280;13450;49.374;8.584;2023-01-30T01:26:22;101220.38;;;-1.16;100.00
25560;BME280;13450;49.374;8.584;2023-01-30T01:28:47;101231.03;;;-1.20;100.00
25560;BME280;13450;49.374;8.584;2023-01-30T01:31:14;101232.94;;;-1.22;100.00
25560;BME280;13450;49.374;8.584;2023-01-30T01:33:40;101237.41;;;-1.24;100.00
25560;BME280;13450;49.374;8.584;2023-01-30T01:36:08;101227.84;;;-1.25;100.00
25560;BME280;13450;49.374;8.584;2023-01-30T01:38:34;101226.25;;;-1.27;100.00
25560;BME280;13450;49.374;8.584;2023-01-30T01:40:59;101227.94;;;-1.26;100.00
25560;BME280;13450;49.374;8.584;2023-01-30T01:43:33;101216.69;;;-1.28;100.00
25560;BME280;13450;49.374;8.584;2023-01-30T01:46:21;101239.28;;;-1.26;100.00
25560;BME280;13450;49.374;8.584;2023-01-30T01:48:52;101223.81;;;-1.16;100.00
25560;BME280;13450;49.374;8.584;2023-01-30T01:51:27;101210.44;;;-1.11;100.00
25560;BME280;13450;49.374;8.584;2023-01-30T01:54:01;101199.75;;;-1.08;100.00
25560;BME280;13450;49.374;8.584;2023-01-30T01:56:28;101189.03;;;-1.05;100.00
25560;BME280;13450;49.374;8.584;2023-01-30T01:58:58;101188.88;;;-1.02;100.00
25560;BME280;13450;49.374;8.584;2023-01-30T02:01:26;101192.44;;;-1.03;100.00
25560;BME280;13450;49.374;8.584;2023-01-30T02:03:57;101196.66;;;-1.00;100.00
25560;BME280;13450;49.374;8.584;2023-01-30T02:06:26;101186.81;;;-0.97;100.00
25560;BME280;13450;49.374;8.584;2023-01-30T02:08:58;101187.66;;;-0.96;100.00
25560;BME280;13450;49.374;8.584;2023-01-30T02:11:53;101192.72;;;-0.93;100.00
25560;BME280;13450;49.374;8.584;2023-01-30T02:14:24;101183.81;;;-0.90;100.00
25560;BME280;13450;49.374;8.584;2023-01-30T02:16:49;101172.38;;;-0.89;100.00
25560;BME280;13450;49.374;8.584;2023-01-30T02:19:46;101171.50;;;-0.90;100.00
25560;BME280;13450;49.374;8.584;2023-01-30T02:22:35;101174.16;;;-0.90;100.00
25560;BME280;13450;49.374;8.584;2023-01-30T02:25:23;101161.84;;;-0.89;100.00
25560;BME280;13450;49.374;8.584;2023-01-30T02:30:48;101148.50;;;-1.01;100.00
25560;BME280;13450;49.374;8.584;2023-01-30T02:33:46;101147.69;;;-1.01;100.00
25560;BME280;13450;49.374;8.584;2023-01-30T02:36:18;101151.91;;;-0.99;100.00
25560;BME280;13450;49.374;8.584;2023-01-30T02:42:11;101151.69;;;-0.96;100.00
25560;BME280;13450;49.374;8.584;2023-01-30T02:47:24;101139.31;;;-0.94;100.00
25560;BME280;13450;49.374;8.584;2023-01-30T02:49:59;101123.72;;;-0.97;100.00
25560;BME280;13450;49.374;8.584;2023-01-30T02:52:29;101109.84;;;-0.99;100.00
25560;BME280;13450;49.374;8.584;2023-01-30T02:54:55;101127.47;;;-1.01;100.00
25560;BME280;13450;49.374;8.584;2023-01-30T02:57:22;101141.41;;;-0.99;100.00
25560;BME280;13450;49.374;8.584;2023-01-30T02:59:53;101150.41;;;-1.03;100.00
25560;BME280;13450;49.374;8.584;2023-01-30T03:03:21;101151.69;;;-1.10;100.00
25560;BME280;13450;49.374;8.584;2023-01-30T03:12:16;101172.13;;;-1.15;100.00
25560;BME280;13450;49.374;8.584;2023-01-30T03:14:29;101172.50;;;-1.22;100.00
25560;BME280;13450;49.374;8.584;2023-01-30T03:16:57;101172.22;;;-1.17;100.00
25560;BME280;13450;49.374;8.584;2023-01-30T03:19:25;101167.06;;;-1.19;100.00
25560;BME280;13450;49.374;8.584;2023-01-30T03:21:54;101152.88;;;-1.16;100.00
25560;BME280;13450;49.374;8.584;2023-01-30T03:24:22;101168.75;;;-1.17;100.00
25560;BME280;13450;49.374;8.584;2023-01-30T03:26:53;101174.38;;;-1.24;100.00
25560;BME280;13450;49.374;8.584;2023-01-30T03:29:19;101182.06;;;-1.21;100.00
25560;BME280;13450;49.374;8.584;2023-01-30T03:31:44;101146.41;;;-1.25;100.00
25560;BME280;13450;49.374;8.584;2023-01-30T03:34:10;101172.69;;;-1.25;100.00
25560;BME280;13450;49.374;8.584;2023-01-30T03:36:35;101171.56;;;-1.21;100.00
25560;BME280;13450;49.374;8.584;2023-01-30T03:39:06;101162.81;;;-1.21;100.00
25560;BME280;13450;49.374;8.584;2023-01-30T03:41:31;101154.88;;;-1.20;100.00
25560;BME280;13450;49.374;8.584;2023-01-30T03:43:56;101154.88;;;-1.20;100.00
25560;BME280;13450;49.374;8.584;2023-01-30T03:46:22;101162.91;;;-1.23;100.00
25560;BME280;13450;49.374;8.584;2023-01-30T03:48:47;101164.44;;;-1.19;100.00
25560;BME280;13450;49.374;8.584;2023-01-30T03:51:13;101159.25;;;-1.20;100.00
25560;BME280;13450;49.374;8.584;2023-01-30T03:53:38;101153.19;;;-1.21;100.00
25560;BME280;13450;49.374;8.584;2023-01-30T03:56:03;101161.88;;;-1.20;100.00
25560;BME280;13450;49.374;8.584;2023-01-30T03:58:29;101154.88;;;-1.20;100.00
25560;BME280;13450;49.374;8.584;2023-01-30T04:00:55;101148.75;;;-1.20;100.00
25560;BME280;13450;49.374;8.584;2023-01-30T04:03:23;101155.03;;;-1.23;100.00
25560;BME280;13450;49.374;8.584;2023-01-30T04:05:48;101169.13;;;-1.24;100.00
25560;BME280;13450;49.374;8.584;2023-01-30T04:08:14;101164.44;;;-1.19;100.00
25560;BME280;13450;49.374;8.584;2023-01-30T04:10:39;101159.16;;;-1.19;100.00
25560;BME280;13450;49.374;8.584;2023-01-30T04:13:04;101160.78;;;-1.16;100.00
25560;BME280;13450;49.374;8.584;2023-01-30T04:15:30;101159.75;;;-1.13;100.00
25560;BME280;13450;49.374;8.584;2023-01-30T04:17:55;101154.88;;;-1.20;100.00
25560;BME280;13450;49.374;8.584;2023-01-30T04:20:21;101139.28;;;-1.23;100.00
25560;BME280;13450;49.374;8.584;2023-01-30T04:22:46;101134.03;;;-1.23;100.00
25560;BME280;13450;49.374;8.584;2023-01-30T04:25:12;101120.78;;;-1.21;100.00
25560;BME280;13450;49.374;8.584;2023-01-30T04:27:37;101126.69;;;-1.17;100.00
25560;BME280;13450;49.374;8.584;2023-01-30T04:30:03;101109.09;;;-1.15;100.00
25560;BME280;13450;49.374;8.584;2023-01-30T04:32:29;101108.91;;;-1.12;100.00
25560;BME280;13450;49.374;8.584;2023-01-30T04:34:54;101095.66;;;-1.11;100.00
25560;BME280;13450;49.374;8.584;2023-01-30T04:37:19;101105.34;;;-1.11;100.00
25560;BME280;13450;49.374;8.584;2023-01-30T04:39:45;101099.91;;;-1.08;100.00
25560;BME280;13450;49.374;8.584;2023-01-30T04:42:10;101095.47;;;-1.08;100.00
25560;BME280;13450;49.374;8.584;2023-01-30T04:44:36;101107.59;;;-1.05;100.00
25560;BME280;13450;49.374;8.584;2023-01-30T04:47:01;101108.34;;;-1.03;100.00
25560;BME280;13450;49.374;8.584;2023-01-30T04:49:26;101100.25;;;-1.00;100.00
25560;BME280;13450;49.374;8.584;2023-01-30T04:51:53;101101.03;;;-0.98;100.00
25560;BME280;13450;49.374;8.584;2023-01-30T04:54:18;101097.38;;;-0.95;100.00
25560;BME280;13450;49.374;8.584;2023-01-30T04:56:44;101105.06;;;-0.92;100.00
25560;BME280;13450;49.374;8.584;2023-01-30T04:59:12;101098.97;;;-0.93;100.00
25560;BME280;13450;49.374;8.584;2023-01-30T05:01:38;101097.06;;;-0.90;100.00
25560;BME280;13450;49.374;8.584;2023-01-30T05:04:04;101089.09;;;-0.89;100.00
25560;BME280;13450;49.374;8.584;2023-01-30T05:06:30;101080.94;;;-0.84;100.00
25560;BME280;13450;49.374;8.584;2023-01-30T05:08:59;101081.88;;;-0.85;100.00
25560;BME280;13450;49.374;8.584;2023-01-30T05:11:25;101076.50;;;-0.84;100.00
25560;BME280;13450;49.374;8.584;2023-01-30T05:13:55;101055.47;;;-0.84;100.00
25560;BME280;13450;49.374;8.584;2023-01-30T05:16:21;101058.88;;;-0.82;100.00
25560;BME280;13450;49.374;8.584;2023-01-30T05:18:47;101062.34;;;-0.81;100.00
25560;BME280;13450;49.374;8.584;2023-01-30T05:21:15;101071.84;;;-0.78;100.00
25560;BME280;13450;49.374;8.584;2023-01-30T05:23:41;101074.66;;;-0.82;100.00
25560;BME280;13450;49.374;8.584;2023-01-30T05:26:07;101077.19;;;-0.80;100.00
25560;BME280;13450;49.374;8.584;2023-01-30T05:28:33;101083.19;;;-0.78;100.00
25560;BME280;13450;49.374;8.584;2023-01-30T05:31:05;101074.56;;;-0.80;100.00
25560;BME280;13450;49.374;8.584;2023-01-30T05:33:31;101072.75;;;-0.80;100.00
25560;BME280;13450;49.374;8.584;2023-01-30T05:35:56;101065.81;;;-0.81;100.00
25560;BME280;13450;49.374;8.584;2023-01-30T05:38:22;101067.41;;;-0.78;100.00
25560;BME280;13450;49.374;8.584;2023-01-30T05:40:59;101058.69;;;-0.78;100.00
25560;BME280;13450;49.374;8.584;2023-01-30T05:43:25;101048.28;;;-0.80;100.00
25560;BME280;13450;49.374;8.584;2023-01-30T05:45:54;101063.28;;;-0.82;100.00
25560;BME280;13450;49.374;8.584;2023-01-30T05:48:21;101056.34;;;-0.83;100.00
25560;BME280;13450;49.374;8.584;2023-01-30T05:50:49;101063.28;;;-0.82;100.00
25560;BME280;13450;49.374;8.584;2023-01-30T05:53:17;101061.41;;;-0.80;100.00
25560;BME280;13450;49.374;8.584;2023-01-30T05:55:42;101073.59;;;-0.79;100.00
25560;BME280;13450;49.374;8.584;2023-01-30T05:58:08;101068.53;;;-0.82;100.00
25560;BME280;13450;49.374;8.584;2023-01-30T06:00:34;101086.00;;;-0.81;100.00
25560;BME280;13450;49.374;8.584;2023-01-30T06:03:02;101071.94;;;-0.80;100.00
25560;BME280;13450;49.374;8.584;2023-01-30T06:05:27;101080.47;;;-0.76;100.00
25560;BME280;13450;49.374;8.584;2023-01-30T06:07:52;101074.25;;;-0.75;100.00
25560;BME280;13450;49.374;8.584;2023-01-30T06:10:21;101074.06;;;-0.72;100.00
25560;BME280;13450;49.374;8.584;2023-01-30T06:12:46;101077.44;;;-0.70;100.00
25560;BME280;13450;49.374;8.584;2023-01-30T06:15:11;101086.94;;;-0.68;100.00
25560;BME280;13450;49.374;8.584;2023-01-30T06:17:41;101078.28;;;-0.70;100.00
25560;BME280;13450;49.374;8.584;2023-01-30T06:20:08;101066.38;;;-0.75;100.00
25560;BME280;13450;49.374;8.584;2023-01-30T06:22:33;101051.63;;;-0.78;100.00
25560;BME280;13450;49.374;8.584;2023-01-30T06:24:58;101058.69;;;-0.78;100.00
25560;BME280;13450;49.374;8.584;2023-01-30T06:27:24;101049.94;;;-0.79;100.00
25560;BME280;13450;49.374;8.584;2023-01-30T06:29:49;101063.09;;;-0.79;100.00
25560;BME280;13450;49.374;8.584;2023-01-30T06:32:14;101072.47;;;-0.75;100.00
25560;BME280;13450;49.374;8.584;2023-01-30T06:34:40;101048.28;;;-0.80;100.00
25560;BME280;13450;49.374;8.584;2023-01-30T06:37:05;101050.91;;;-0.80;100.00
25560;BME280;13450;49.374;8.584;2023-01-30T06:39:32;101057.66;;;-0.76;100.00
25560;BME280;13450;49.374;8.584;2023-01-30T06:41:58;101062.91;;;-0.76;100.00
25560;BME280;13450;49.374;8.584;2023-01-30T06:44:23;101071.72;;;-0.77;100.00
25560;BME280;13450;49.374;8.584;2023-01-30T06:46:48;101066.47;;;-0.77;100.00
25560;BME280;13450;49.374;8.584;2023-01-30T06:49:14;101075.09;;;-0.75;100.00
25560;BME280;13450;49.374;8.584;2023-01-30T06:51:41;101081.09;;;-0.73;100.00
25560;BME280;13450;49.374;8.584;2023-01-30T06:54:06;101083.47;;;-0.68;100.00
25560;BME280;13450;49.374;8.584;2023-01-30T06:56:34;101088.41;;;-0.63;100.00
25560;BME280;13450;49.374;8.584;2023-01-30T06:59:00;101093.59;;;-0.62;100.00
25560;BME280;13450;49.374;8.584;2023-01-30T07:01:25;101082.03;;;-0.59;100.00
25560;BME280;13450;49.374;8.584;2023-01-30T07:03:53;101056.31;;;-0.54;100.00
25560;BME280;13450;49.374;8.584;2023-01-30T07:06:21;101047.47;;;-0.53;100.00
25560;BME280;13450;49.374;8.584;2023-01-30T07:08:46;101024.34;;;-0.48;100.00
25560;BME280;13450;49.374;8.584;2023-01-30T07:11:12;101026.97;;;-0.48;100.00
25560;BME280;13450;49.374;8.584;2023-01-30T07:13:37;101011.94;;;-0.46;100.00
25560;BME280;13450;49.374;8.584;2023-01-30T07:16:03;101009.19;;;-0.44;100.00
25560;BME280;13450;49.374;8.584;2023-01-30T07:18:28;101015.97;;;-0.40;100.00
25560;BME280;13450;49.374;8.584;2023-01-30T07:20:54;101027.44;;;-0.41;100.00
25560;BME280;13450;49.374;8.584;2023-01-30T07:23:19;101020.56;;;-0.44;100.00
25560;BME280;13450;49.374;8.584;2023-01-30T07:25:44;101014.47;;;-0.44;100.00
25560;BME280;13450;49.374;8.584;2023-01-30T07:28:10;101005.75;;;-0.45;100.00
25560;BME280;13450;49.374;8.584;2023-01-30T07:30:35;101011.94;;;-0.46;100.00
25560;BME280;13450;49.374;8.584;2023-01-30T07:33:04;100984.03;;;-0.48;100.00
25560;BME280;13450;49.374;8.584;2023-01-30T07:35:33;100988.47;;;-0.49;100.00
25560;BME280;13450;49.374;8.584;2023-01-30T07:37:59;100990.88;;;-0.46;100.00
25560;BME280;13450;49.374;8.584;2023-01-30T07:40:27;101004.97;;;-0.47;100.00
25560;BME280;13450;49.374;8.584;2023-01-30T07:45:30;101007.63;;;-0.47;100.00
25560;BME280;13450;49.374;8.584;2023-01-30T07:47:58;101018.59;;;-0.40;100.00
25560;BME280;13450;49.374;8.584;2023-01-30T07:50:26;101019.81;;;-0.46;100.00
25560;BME280;13450;49.374;8.584;2023-01-30T07:52:52;101015.31;;;-0.44;100.00
25560;BME280;13450;49.374;8.584;2023-01-30T07:55:21;100987.34;;;-0.45;100.00
25560;BME280;13450;49.374;8.584;2023-01-30T07:57:47;100961.22;;;-0.48;100.00
25560;BME280;13450;49.374;8.584;2023-01-30T08:00:13;100989.66;;;-0.40;100.00
25560;BME280;13450;49.374;8.584;2023-01-30T08:02:38;100987.13;;;-0.42;100.00
25560;BME280;13450;49.374;8.584;2023-01-30T08:05:04;100990.88;;;-0.46;100.00
25560;BME280;13450;49.374;8.584;2023-01-30T08:07:30;100972.19;;;-0.41;100.00
25560;BME280;13450;49.374;8.584;2023-01-30T08:09:55;100995.00;;;-0.42;100.00
25560;BME280;13450;49.374;8.584;2023-01-30T08:12:21;100974.50;;;-0.36;100.00
25560;BME280;13450;49.374;8.584;2023-01-30T08:14:46;100997.25;;;-0.35;100.00
25560;BME280;13450;49.374;8.584;2023-01-30T08:17:11;101018.66;;;-0.27;100.00
25560;BME280;13450;49.374;8.584;2023-01-30T08:19:37;101014.53;;;-0.31;100.00
25560;BME280;13450;49.374;8.584;2023-01-30T08:22:02;101016.22;;;-0.30;100.00
25560;BME280;13450;49.374;8.584;2023-01-30T08:24:28;101008.50;;;-0.33;100.00
25560;BME280;13450;49.374;8.584;2023-01-30T08:26:56;101017.03;;;-0.30;100.00
25560;BME280;13450;49.374;8.584;2023-01-30T08:29:23;101022.97;;;-0.26;100.00
25560;BME280;13450;49.374;8.584;2023-01-30T08:31:51;101030.09;;;-0.28;100.00
25560;BME280;13450;49.374;8.584;2023-01-30T08:34:20;101023.78;;;-0.25;100.00
25560;BME280;13450;49.374;8.584;2023-01-30T08:36:47;101004.31;;;-0.23;100.00
25560;BME280;13450;49.374;8.584;2023-01-30T08:39:12;100996.84;;;-0.29;100.00
25560;BME280;13450;49.374;8.584;2023-01-30T08:41:38;100980.00;;;-0.27;100.00
25560;BME280;13450;49.374;8.584;2023-01-30T08:44:07;100980.88;;;-0.26;100.00
25560;BME280;13450;49.374;8.584;2023-01-30T08:46:32;100988.94;;;-0.29;100.00
25560;BME280;13450;49.374;8.584;2023-01-30T08:48:57;100988.75;;;-0.26;100.00
25560;BME280;13450;49.374;8.584;2023-01-30T08:51:24;100970.97;;;-0.22;100.00
25560;BME280;13450;49.374;8.584;2023-01-30T08:53:49;100971.84;;;-0.22;100.00
25560;BME280;13450;49.374;8.584;2023-01-30T08:56:14;100992.66;;;-0.19;100.00
25560;BME280;13450;49.374;8.584;2023-01-30T08:58:40;100997.72;;;-0.16;100.00
25560;BME280;13450;49.374;8.584;2023-01-30T09:01:07;100985.31;;;-0.14;100.00
25560;BME280;13450;49.374;8.584;2023-01-30T09:03:34;100998.06;;;-0.07;100.00
25560;BME280;13450;49.374;8.584;2023-01-30T09:05:59;101004.72;;;-0.02;100.00
25560;BME280;13450;49.374;8.584;2023-01-30T09:08:25;101005.53;;;-0.01;100.00
25560;BME280;13450;49.374;8.584;2023-01-30T09:10:56;100995.25;;;-0.04;100.00
25560;BME280;13450;49.374;8.584;2023-01-30T09:13:22;101007.00;;;-0.10;100.00
25560;BME280;13450;49.374;8.584;2023-01-30T09:15:48;100988.50;;;-0.08;100.00
25560;BME280;13450;49.374;8.584;2023-01-30T09:18:13;100991.47;;;0.00;100.00
25560;BME280;13450;49.374;8.584;2023-01-30T09:20:38;100977.97;;;0.05;100.00
25560;BME280;13450;49.374;8.584;2023-01-30T09:23:04;100973.56;;;0.05;100.00
25560;BME280;13450;49.374;8.584;2023-01-30T09:25:30;100965.97;;;0.13;100.00
25560;BME280;13450;49.374;8.584;2023-01-30T09:27:56;100965.44;;;0.08;100.00
25560;BME280;13450;49.374;8.584;2023-01-30T09:30:21;100975.78;;;0.11;100.00
25560;BME280;13450;49.374;8.584;2023-01-30T09:32:47;100958.81;;;0.29;100.00
25560;BME280;13450;49.374;8.584;2023-01-30T09:35:12;100947.66;;;0.25;100.00
25560;BME280;13450;49.374;8.584;2023-01-30T09:37:38;100937.47;;;0.33;100.00
25560;BME280;13450;49.374;8.584;2023-01-30T09:40:15;100947.22;;;0.31;100.00
25560;BME280;13450;49.374;8.584;2023-01-30T09:45:44;100941.56;;;0.37;100.00
25560;BME280;13450;49.374;8.584;2023-01-30T09:56:21;100974.19;;;0.74;100.00
25560;BME280;13450;49.374;8.584;2023-01-30T09:58:53;100956.47;;;0.76;100.00
25560;BME280;13450;49.374;8.584;2023-01-30T10:01:28;100943.81;;;0.81;100.00
25560;BME280;13450;49.374;8.584;2023-01-30T10:07:16;100976.88;;;0.98;100.00
25560;BME280;13450;49.374;8.584;2023-01-30T10:10:10;100957.13;;;0.80;100.00
25560;BME280;13450;49.374;8.584;2023-01-30T10:26:26;100961.94;;;0.86;100.00
25560;BME280;13450;49.374;8.584;2023-01-30T10:28:59;100974.59;;;0.68;100.00
25560;BME280;13450;49.374;8.584;2023-01-30T10:31:32;100958.50;;;0.72;100.00
25560;BME280;13450;49.374;8.584;2023-01-30T10:36:53;100981.06;;;0.63;100.00
25560;BME280;13450;49.374;8.584;2023-01-30T10:42:14;100960.91;;;0.62;100.00
25560;BME280;13450;49.374;8.584;2023-01-30T10:44:45;100965.97;;;0.65;100.00
25560;BME280;13450;49.374;8.584;2023-01-30T10:47:47;100970.09;;;0.57;100.00
25560;BME280;13450;49.374;8.584;2023-01-30T10:50:23;100970.38;;;0.65;100.00
25560;BME280;13450;49.374;8.584;2023-01-30T10:56:21;100979.88;;;0.68;100.00
25560;BME280;13450;49.374;8.584;2023-01-30T11:01:44;100962.59;;;0.76;100.00
25560;BME280;13450;49.374;8.584;2023-01-30T11:04:24;100953.63;;;0.79;100.00
25560;BME280;13450;49.374;8.584;2023-01-30T11:06:54;100953.72;;;0.90;100.00
25560;BME280;13450;49.374;8.584;2023-01-30T11:09:22;100958.44;;;0.98;100.00
25560;BME280;13450;49.374;8.584;2023-01-30T11:11:50;100959.06;;;1.02;100.00
25560;BME280;13450;49.374;8.584;2023-01-30T11:14:16;100966.50;;;1.08;100.00
25560;BME280;13450;49.374;8.584;2023-01-30T11:16:49;100953.63;;;1.16;100.00
25560;BME280;13450;49.374;8.584;2023-01-30T11:19:21;100936.41;;;1.24;100.00
25560;BME280;13450;49.374;8.584;2023-01-30T11:21:49;100931.19;;;1.35;100.00
25560;BME280;13450;49.374;8.584;2023-01-30T11:27:38;100936.59;;;1.58;100.00
25560;BME280;13450;49.374;8.584;2023-01-30T11:30:12;100958.34;;;1.49;100.00
25560;BME280;13450;49.374;8.584;2023-01-30T11:32:40;100935.38;;;1.62;100.00
25560;BME280;13450;49.374;8.584;2023-01-30T11:37:38;100934.94;;;1.80;100.00
25560;BME280;13450;49.374;8.584;2023-01-30T11:42:46;100938.72;;;1.89;100.00
25560;BME280;13450;49.374;8.584;2023-01-30T11:45:12;100938.50;;;1.92;100.00
25560;BME280;13450;49.374;8.584;2023-01-30T11:47:38;100924.66;;;1.88;100.00
25560;BME280;13450;49.374;8.584;2023-01-30T11:50:16;100928.53;;;1.95;100.00
25560;BME280;13450;49.374;8.584;2023-01-30T11:52:43;100917.88;;;2.08;100.00
25560;BME280;13450;49.374;8.584;2023-01-30T11:55:13;100920.03;;;2.03;100.00
25560;BME280;13450;49.374;8.584;2023-01-30T11:57:40;100917.16;;;2.18;100.00
25560;BME280;13450;49.374;8.584;2023-01-30T12:00:23;100921.13;;;2.24;100.00
25560;BME280;13450;49.374;8.584;2023-01-30T12:02:52;100903.84;;;2.19;100.00
25560;BME280;13450;49.374;8.584;2023-01-30T12:08:11;100909.63;;;2.36;100.00
25560;BME280;13450;49.374;8.584;2023-01-30T12:10:41;100915.59;;;2.38;100.00
25560;BME280;13450;49.374;8.584;2023-01-30T12:13:15;100908.31;;;2.42;100.00
25560;BME280;13450;49.374;8.584;2023-01-30T12:15:47;100897.13;;;2.38;100.00
25560;BME280;13450;49.374;8.584;2023-01-30T12:18:30;100893.28;;;2.42;100.00
25560;BME280;13450;49.374;8.584;2023-01-30T12:21:38;100866.59;;;2.34;100.00
25560;BME280;13450;49.374;8.584;2023-01-30T12:24:21;100890.59;;;2.77;100.00
25560;BME280;13450;49.374;8.584;2023-01-30T12:26:57;100878.50;;;5.84;100.00
25560;BME280;13450;49.374;8.584;2023-01-30T12:32:03;100880.78;;;6.27;100.00
25560;BME280;13450;49.374;8.584;2023-01-30T12:34:30;100868.16;;;5.91;100.00
25560;BME280;13450;49.374;8.584;2023-01-30T12:37:17;100897.28;;;5.33;100.00
25560;BME280;13450;49.374;8.584;2023-01-30T12:43:22;100905.03;;;6.14;100.00
25560;BME280;13450;49.374;8.584;2023-01-30T12:48:42;100897.50;;;4.91;100.00
25560;BME280;13450;49.374;8.584;2023-01-30T12:54:04;100917.34;;;4.96;100.00
25560;BME280;13450;49.374;8.584;2023-01-30T13:07:45;100925.75;;;3.77;100.00
25560;BME280;13450;49.374;8.584;2023-01-30T13:28:19;100938.13;;;4.50;100.00
25560;BME280;13450;49.374;8.584;2023-01-30T13:30:47;100943.56;;;3.75;100.00
25560;BME280;13450;49.374;8.584;2023-01-30T13:33:19;100942.63;;;3.43;100.00
25560;BME280;13450;49.374;8.584;2023-01-30T13:35:50;100935.06;;;3.60;100.00
25560;BME280;13450;49.374;8.584;2023-01-30T13:38:23;100942.66;;;3.32;100.00
25560;BME280;13450;49.374;8.584;2023-01-30T13:40:51;100952.03;;;3.24;100.00
25560;BME280;13450;49.374;8.584;2023-01-30T13:43:37;100948.72;;;2.99;100.00
25560;BME280;13450;49.374;8.584;2023-01-30T13:46:10;100956.19;;;2.94;100.00
25560;BME280;13450;49.374;8.584;2023-01-30T13:49:03;100944.66;;;2.95;100.00
25560;BME280;13450;49.374;8.584;2023-01-30T13:51:50;100944.78;;;2.94;100.00
25560;BME280;13450;49.374;8.584;2023-01-30T13:54:32;100947.25;;;3.18;100.00
25560;BME280;13450;49.374;8.584;2023-01-30T14:02:23;100944.97;;;3.58;100.00
25560;BME280;13450;49.374;8.584;2023-01-30T14:04:55;100959.63;;;3.62;100.00
25560;BME280;13450;49.374;8.584;2023-01-30T14:07:27;100949.75;;;3.85;100.00
25560;BME280;13450;49.374;8.584;2023-01-30T14:12:44;100950.75;;;4.37;100.00
25560;BME280;13450;49.374;8.584;2023-01-30T14:15:35;100942.88;;;4.47;100.00
25560;BME280;13450;49.374;8.584;2023-01-30T14:20:51;100941.63;;;4.19;100.00
25560;BME280;13450;49.374;8.584;2023-01-30T14:23:31;100965.50;;;4.08;100.00
25560;BME280;13450;49.374;8.584;2023-01-30T14:25:58;100965.38;;;4.10;100.00
25560;BME280;13450;49.374;8.584;2023-01-30T14:30:54;100968.34;;;4.16;100.00
25560;BME280;13450;49.374;8.584;2023-01-30T14:38:39;100972.41;;;3.57;100.00
25560;BME280;13450;49.374;8.584;2023-01-30T14:43:37;100980.19;;;3.25;100.00
25560;BME280;13450;49.374;8.584;2023-01-30T14:53:58;100963.13;;;3.07;100.00
25560;BME280;13450;49.374;8.584;2023-01-30T14:59:09;100966.28;;;3.00;100.00
25560;BME280;13450;49.374;8.584;2023-01-30T15:02:03;100965.19;;;3.03;100.00
25560;BME280;13450;49.374;8.584;2023-01-30T15:04:43;100966.91;;;2.93;100.00
25560;BME280;13450;49.374;8.584;2023-01-30T15:07:13;100954.75;;;2.90;100.00
25560;BME280;13450;49.374;8.584;2023-01-30T15:09:44;100949.47;;;2.90;100.00
25560;BME280;13450;49.374;8.584;2023-01-30T15:15:13;100971.09;;;2.95;100.00
25560;BME280;13450;49.374;8.584;2023-01-30T15:20:37;100985.41;;;2.93;100.00